Airfield :
LOGIN :

Register | Disclaimer

   EN    FR    IT 

 










Legend :    VFR   Marginal VFR   IFR   Intensive IFR   Very Intensive IFR
Visi :
Ceiling :
>= 8 km
>= 3000ft
5 to 8 km
1000 to 3000 ft
1500m to 5 km
500 to 1000 ft
800 to 1500m
200 to 500 ft
< 800m
< 200 ft
Symbols :   Thunderstorms  Fog  Heavy snow  Heavy precipitations  Wind > 20 kt
SIGMETs :     Misc.  Thunderstorms  Icing  Turbulence  Mountain Waves  Volcanic Ashes






- Airport Elevation : 778 ft
- IATA code : BRQ


LKTB - Brno-Turany

CURRENT METAR :
  • 200330Z 36004KT 9999 FEW011 BKN044 02/00 Q1041 R27/29//95 NOSIG

EXPIRED METARs :
  • 200300Z VRB02KT 9999 FEW011 BKN043 02/00 Q1040 R27/29//95 NOSIG
  • 200230Z 36003KT 310V110 CAVOK 02/00 Q1040 R27/29//95 NOSIG
  • 200200Z 33008KT CAVOK 02/00 Q1040 R27/29//95 NOSIG
  • 200135Z 33009KT CAVOK 02/00 Q1040 R27/29//95 RMK REG QNH 1036
  • 200130Z 32010KT CAVOK 02/00 Q1040 R27/25//95 NOSIG
  • 200100Z 32010KT CAVOK 02/00 Q1039 R27/25//95 NOSIG

TAF TAF LKTB
Valid from the 20 at 00:00 until the 21 at 06:00 UTC


192300Z 2000/2106 32008KT 9999 BKN033
TEMPO 2000/2006 5000 -RASN BR BKN012
BECMG 2006/2008 VRB02KT CAVOK
BECMG 2022/2100 3000 BR SCT002
TEMPO 2101/2106 1200 MIFG BKN002
PROB30
TEMPO 2101/2106 0300 FZFG OVC001



MET'MAP, your aeronautical weather chart ! - Copyright ORBIFLY December 2007 - Disclaimer

ORBIFLY MET'MAP TEAM :

Programming & Development : Alexandra Zaïnal
Concept & original design : Baudouin d'Aumeries
Assistance for programming : Marc-Olivier Méhu
Technical & hardware support : Manuel Goepfert

Contact : metmap@orbifly.com




SOURCES & CREDITS :

   NOAA